sensor_id;sensor_type;location;lat;lon;timestamp;temperature;humidity
254;DHT22;590;48.772;8.846;2023-04-01T00:01:13;17.70;7.00
254;DHT22;590;48.772;8.846;2023-04-01T00:03:41;17.60;6.90
254;DHT22;590;48.772;8.846;2023-04-01T00:06:12;17.60;6.90
254;DHT22;590;48.772;8.846;2023-04-01T00:08:41;17.60;6.90
254;DHT22;590;48.772;8.846;2023-04-01T00:11:09;17.60;6.90
254;DHT22;590;48.772;8.846;2023-04-01T00:13:39;17.60;6.90
254;DHT22;590;48.772;8.846;2023-04-01T00:16:07;17.60;6.90
254;DHT22;590;48.772;8.846;2023-04-01T00:18:47;17.60;6.90
254;DHT22;590;48.772;8.846;2023-04-01T00:21:16;17.60;6.90
254;DHT22;590;48.772;8.846;2023-04-01T00:23:44;17.60;6.90
254;DHT22;590;48.772;8.846;2023-04-01T00:26:12;17.60;6.90
254;DHT22;590;48.772;8.846;2023-04-01T00:28:42;17.60;6.90
254;DHT22;590;48.772;8.846;2023-04-01T00:31:10;17.60;6.90
254;DHT22;590;48.772;8.846;2023-04-01T00:33:38;17.60;7.50
254;DHT22;590;48.772;8.846;2023-04-01T00:36:09;17.60;7.00
254;DHT22;590;48.772;8.846;2023-04-01T00:38:38;17.60;7.00
254;DHT22;590;48.772;8.846;2023-04-01T00:41:06;17.60;6.90
254;DHT22;590;48.772;8.846;2023-04-01T00:43:34;17.50;6.90
254;DHT22;590;48.772;8.846;2023-04-01T00:46:04;17.60;6.90
254;DHT22;590;48.772;8.846;2023-04-01T00:48:35;17.50;6.90
254;DHT22;590;48.772;8.846;2023-04-01T00:51:06;17.50;6.90
254;DHT22;590;48.772;8.846;2023-04-01T00:53:37;17.50;6.90
254;DHT22;590;48.772;8.846;2023-04-01T00:56:11;17.50;6.90
254;DHT22;590;48.772;8.846;2023-04-01T00:58:43;17.50;6.90
254;DHT22;590;48.772;8.846;2023-04-01T01:01:13;17.50;6.90
254;DHT22;590;48.772;8.846;2023-04-01T01:03:41;17.50;6.90
254;DHT22;590;48.772;8.846;2023-04-01T01:06:23;17.50;6.90
254;DHT22;590;48.772;8.846;2023-04-01T01:09:20;17.50;6.90
254;DHT22;590;48.772;8.846;2023-04-01T01:11:58;17.50;6.90
254;DHT22;590;48.772;8.846;2023-04-01T01:14:36;17.50;7.00
254;DHT22;590;48.772;8.846;2023-04-01T01:17:12;17.50;6.90
254;DHT22;590;48.772;8.846;2023-04-01T01:20:05;17.50;7.00
254;DHT22;590;48.772;8.846;2023-04-01T01:23:36;17.50;7.00
254;DHT22;590;48.772;8.846;2023-04-01T01:35:38;17.50;7.00
254;DHT22;590;48.772;8.846;2023-04-01T01:38:13;17.40;7.00
254;DHT22;590;48.772;8.846;2023-04-01T01:40:44;17.40;6.90
254;DHT22;590;48.772;8.846;2023-04-01T01:43:16;17.40;6.90
254;DHT22;590;48.772;8.846;2023-04-01T01:45:48;17.40;6.90
254;DHT22;590;48.772;8.846;2023-04-01T01:48:17;17.40;6.90
254;DHT22;590;48.772;8.846;2023-04-01T01:50:47;17.40;6.90
254;DHT22;590;48.772;8.846;2023-04-01T01:53:16;17.40;6.90
254;DHT22;590;48.772;8.846;2023-04-01T01:55:45;17.40;7.50
254;DHT22;590;48.772;8.846;2023-04-01T01:58:19;17.40;6.90
254;DHT22;590;48.772;8.846;2023-04-01T02:00:52;17.40;6.90
254;DHT22;590;48.772;8.846;2023-04-01T02:03:23;17.40;6.90
254;DHT22;590;48.772;8.846;2023-04-01T02:05:56;17.40;6.90
254;DHT22;590;48.772;8.846;2023-04-01T02:08:28;17.40;6.90
254;DHT22;590;48.772;8.846;2023-04-01T02:11:00;17.40;6.90
254;DHT22;590;48.772;8.846;2023-04-01T02:13:33;17.40;6.90
254;DHT22;590;48.772;8.846;2023-04-01T02:16:05;17.40;6.90
254;DHT22;590;48.772;8.846;2023-04-01T02:18:35;17.40;7.00
254;DHT22;590;48.772;8.846;2023-04-01T02:21:07;17.40;6.90
254;DHT22;590;48.772;8.846;2023-04-01T02:23:37;17.40;6.90
254;DHT22;590;48.772;8.846;2023-04-01T02:26:07;17.40;6.90
254;DHT22;590;48.772;8.846;2023-04-01T02:28:38;17.40;6.90
254;DHT22;590;48.772;8.846;2023-04-01T02:31:08;17.40;6.90
254;DHT22;590;48.772;8.846;2023-04-01T02:33:38;17.40;6.90
254;DHT22;590;48.772;8.846;2023-04-01T02:36:11;17.40;6.90
254;DHT22;590;48.772;8.846;2023-04-01T02:38:40;17.40;7.00
254;DHT22;590;48.772;8.846;2023-04-01T02:41:09;17.40;6.90
254;DHT22;590;48.772;8.846;2023-04-01T02:43:37;17.40;7.00
254;DHT22;590;48.772;8.846;2023-04-01T02:46:05;17.40;7.00
254;DHT22;590;48.772;8.846;2023-04-01T02:48:33;17.40;6.90
254;DHT22;590;48.772;8.846;2023-04-01T02:51:01;17.40;7.00
254;DHT22;590;48.772;8.846;2023-04-01T02:53:30;17.40;6.90
254;DHT22;590;48.772;8.846;2023-04-01T02:55:58;17.40;7.00
254;DHT22;590;48.772;8.846;2023-04-01T02:58:26;17.40;7.00
254;DHT22;590;48.772;8.846;2023-04-01T03:00:54;17.40;7.00
254;DHT22;590;48.772;8.846;2023-04-01T03:03:22;17.40;6.90
254;DHT22;590;48.772;8.846;2023-04-01T03:05:50;17.40;6.90
254;DHT22;590;48.772;8.846;2023-04-01T03:08:20;17.30;6.80
254;DHT22;590;48.772;8.846;2023-04-01T03:10:49;17.40;6.90
254;DHT22;590;48.772;8.846;2023-04-01T03:13:17;17.40;6.90
254;DHT22;590;48.772;8.846;2023-04-01T03:15:45;17.30;6.80
254;DHT22;590;48.772;8.846;2023-04-01T03:18:13;17.30;6.70
254;DHT22;590;48.772;8.846;2023-04-01T03:20:41;17.30;6.80
254;DHT22;590;48.772;8.846;2023-04-01T03:23:09;17.30;6.80
254;DHT22;590;48.772;8.846;2023-04-01T03:25:37;17.30;6.80
254;DHT22;590;48.772;8.846;2023-04-01T03:28:07;17.30;6.80
254;DHT22;590;48.772;8.846;2023-04-01T03:30:35;17.30;6.80
254;DHT22;590;48.772;8.846;2023-04-01T03:33:03;17.30;6.80
254;DHT22;590;48.772;8.846;2023-04-01T03:35:31;17.30;6.80
254;DHT22;590;48.772;8.846;2023-04-01T03:37:59;17.30;6.80
254;DHT22;590;48.772;8.846;2023-04-01T03:40:27;17.30;6.80
254;DHT22;590;48.772;8.846;2023-04-01T03:42:55;17.30;6.80
254;DHT22;590;48.772;8.846;2023-04-01T03:45:25;17.30;6.80
254;DHT22;590;48.772;8.846;2023-04-01T03:47:53;17.30;6.80
254;DHT22;590;48.772;8.846;2023-04-01T03:50:21;17.30;6.80
254;DHT22;590;48.772;8.846;2023-04-01T03:52:49;17.30;6.80
254;DHT22;590;48.772;8.846;2023-04-01T03:55:17;17.30;6.80
254;DHT22;590;48.772;8.846;2023-04-01T03:57:45;17.30;6.80
254;DHT22;590;48.772;8.846;2023-04-01T04:00:13;17.30;6.80
254;DHT22;590;48.772;8.846;2023-04-01T04:02:44;17.30;6.70
254;DHT22;590;48.772;8.846;2023-04-01T04:05:12;17.30;6.80
254;DHT22;590;48.772;8.846;2023-04-01T04:07:40;17.30;6.70
254;DHT22;590;48.772;8.846;2023-04-01T04:10:08;17.30;6.70
254;DHT22;590;48.772;8.846;2023-04-01T04:12:37;17.30;6.80
254;DHT22;590;48.772;8.846;2023-04-01T04:15:05;17.30;6.80
254;DHT22;590;48.772;8.846;2023-04-01T04:17:33;17.30;6.70
254;DHT22;590;48.772;8.846;2023-04-01T04:20:04;17.30;6.80
254;DHT22;590;48.772;8.846;2023-04-01T04:22:32;17.30;6.80
254;DHT22;590;48.772;8.846;2023-04-01T04:25:00;17.30;6.80
254;DHT22;590;48.772;8.846;2023-04-01T04:27:28;17.30;6.80
254;DHT22;590;48.772;8.846;2023-04-01T04:29:56;17.30;6.70
254;DHT22;590;48.772;8.846;2023-04-01T04:32:24;17.30;6.80
254;DHT22;590;48.772;8.846;2023-04-01T04:34:54;17.30;6.80
254;DHT22;590;48.772;8.846;2023-04-01T04:37:23;17.30;6.80
254;DHT22;590;48.772;8.846;2023-04-01T04:39:52;17.30;6.80
254;DHT22;590;48.772;8.846;2023-04-01T04:42:20;17.30;6.80
254;DHT22;590;48.772;8.846;2023-04-01T04:44:48;17.30;6.80
254;DHT22;590;48.772;8.846;2023-04-01T04:47:16;17.30;6.80
254;DHT22;590;48.772;8.846;2023-04-01T04:49:44;17.30;6.70
254;DHT22;590;48.772;8.846;2023-04-01T04:52:12;17.20;6.70
254;DHT22;590;48.772;8.846;2023-04-01T04:54:41;17.20;6.70
254;DHT22;590;48.772;8.846;2023-04-01T04:57:09;17.20;6.60
254;DHT22;590;48.772;8.846;2023-04-01T04:59:37;17.20;6.70
254;DHT22;590;48.772;8.846;2023-04-01T05:02:05;17.20;6.60
254;DHT22;590;48.772;8.846;2023-04-01T05:04:35;17.20;6.60
254;DHT22;590;48.772;8.846;2023-04-01T05:07:03;17.20;6.60
254;DHT22;590;48.772;8.846;2023-04-01T05:09:31;17.20;6.60
254;DHT22;590;48.772;8.846;2023-04-01T05:12:01;17.20;6.70
254;DHT22;590;48.772;8.846;2023-04-01T05:14:29;17.20;6.70
254;DHT22;590;48.772;8.846;2023-04-01T05:16:57;17.20;6.60
254;DHT22;590;48.772;8.846;2023-04-01T05:19:25;17.20;6.70
254;DHT22;590;48.772;8.846;2023-04-01T05:21:53;17.20;6.60
254;DHT22;590;48.772;8.846;2023-04-01T05:24:21;17.20;6.60
254;DHT22;590;48.772;8.846;2023-04-01T05:26:49;17.20;6.70
254;DHT22;590;48.772;8.846;2023-04-01T05:29:19;17.20;6.70
254;DHT22;590;48.772;8.846;2023-04-01T05:31:47;17.20;6.70
254;DHT22;590;48.772;8.846;2023-04-01T05:34:15;17.20;6.60
254;DHT22;590;48.772;8.846;2023-04-01T05:36:44;17.20;6.70
254;DHT22;590;48.772;8.846;2023-04-01T05:39:12;17.20;6.70
254;DHT22;590;48.772;8.846;2023-04-01T05:41:40;17.20;6.70
254;DHT22;590;48.772;8.846;2023-04-01T05:44:11;17.20;6.60
254;DHT22;590;48.772;8.846;2023-04-01T05:46:41;17.20;6.60
254;DHT22;590;48.772;8.846;2023-04-01T05:49:10;17.20;6.60
254;DHT22;590;48.772;8.846;2023-04-01T05:51:38;17.20;6.60
254;DHT22;590;48.772;8.846;2023-04-01T05:54:06;17.20;6.60
254;DHT22;590;48.772;8.846;2023-04-01T05:56:34;17.20;6.60
254;DHT22;590;48.772;8.846;2023-04-01T05:59:02;17.20;6.60
254;DHT22;590;48.772;8.846;2023-04-01T06:01:30;17.20;6.60
254;DHT22;590;48.772;8.846;2023-04-01T06:03:59;17.20;6.70
254;DHT22;590;48.772;8.846;2023-04-01T06:06:29;17.20;6.60
254;DHT22;590;48.772;8.846;2023-04-01T06:09:06;17.20;6.60
254;DHT22;590;48.772;8.846;2023-04-01T06:11:43;17.20;6.60
254;DHT22;590;48.772;8.846;2023-04-01T06:14:27;17.20;6.60
254;DHT22;590;48.772;8.846;2023-04-01T06:17:07;17.20;6.60
254;DHT22;590;48.772;8.846;2023-04-01T06:19:50;17.20;6.60
254;DHT22;590;48.772;8.846;2023-04-01T06:22:56;17.20;6.60
254;DHT22;590;48.772;8.846;2023-04-01T06:25:53;17.20;6.60
254;DHT22;590;48.772;8.846;2023-04-01T06:28:56;17.20;6.50
254;DHT22;590;48.772;8.846;2023-04-01T06:31:44;17.20;6.50
254;DHT22;590;48.772;8.846;2023-04-01T06:34:29;17.20;6.50
254;DHT22;590;48.772;8.846;2023-04-01T06:37:12;17.20;6.60
254;DHT22;590;48.772;8.846;2023-04-01T06:40:00;17.20;7.00
254;DHT22;590;48.772;8.846;2023-04-01T06:42:46;17.20;6.40
254;DHT22;590;48.772;8.846;2023-04-01T06:45:25;17.30;6.40
254;DHT22;590;48.772;8.846;2023-04-01T06:48:06;17.30;6.40
254;DHT22;590;48.772;8.846;2023-04-01T06:50:48;17.30;6.40
254;DHT22;590;48.772;8.846;2023-04-01T06:53:23;17.30;6.30
254;DHT22;590;48.772;8.846;2023-04-01T06:55:57;17.30;6.30
254;DHT22;590;48.772;8.846;2023-04-01T06:58:29;17.30;6.30
254;DHT22;590;48.772;8.846;2023-04-01T07:01:00;17.30;6.20
254;DHT22;590;48.772;8.846;2023-04-01T07:03:33;17.40;6.40
254;DHT22;590;48.772;8.846;2023-04-01T07:06:03;17.40;6.40
254;DHT22;590;48.772;8.846;2023-04-01T07:08:36;17.40;6.30
254;DHT22;590;48.772;8.846;2023-04-01T07:11:06;17.40;6.30
254;DHT22;590;48.772;8.846;2023-04-01T07:13:40;17.40;6.30
254;DHT22;590;48.772;8.846;2023-04-01T07:16:12;17.40;6.30
254;DHT22;590;48.772;8.846;2023-04-01T07:18:45;17.50;6.30
254;DHT22;590;48.772;8.846;2023-04-01T07:21:25;17.50;6.40
254;DHT22;590;48.772;8.846;2023-04-01T07:24:01;17.50;6.30
254;DHT22;590;48.772;8.846;2023-04-01T07:26:31;17.50;6.30
254;DHT22;590;48.772;8.846;2023-04-01T07:28:59;17.50;6.40
254;DHT22;590;48.772;8.846;2023-04-01T07:31:45;17.50;6.30
254;DHT22;590;48.772;8.846;2023-04-01T07:34:19;17.50;6.30
254;DHT22;590;48.772;8.846;2023-04-01T07:36:54;17.50;6.30
254;DHT22;590;48.772;8.846;2023-04-01T07:39:37;17.50;6.30
254;DHT22;590;48.772;8.846;2023-04-01T07:42:14;17.50;6.30
254;DHT22;590;48.772;8.846;2023-04-01T07:44:51;17.50;6.30
254;DHT22;590;48.772;8.846;2023-04-01T07:47:34;17.50;6.30
254;DHT22;590;48.772;8.846;2023-04-01T07:50:13;17.50;6.30
254;DHT22;590;48.772;8.846;2023-04-01T07:52:49;17.50;6.30
254;DHT22;590;48.772;8.846;2023-04-01T07:55:25;17.50;6.30
254;DHT22;590;48.772;8.846;2023-04-01T07:58:03;17.60;6.30
254;DHT22;590;48.772;8.846;2023-04-01T08:00:40;17.60;6.40
254;DHT22;590;48.772;8.846;2023-04-01T08:03:20;17.60;6.30
254;DHT22;590;48.772;8.846;2023-04-01T08:05:54;17.60;6.40
254;DHT22;590;48.772;8.846;2023-04-01T08:08:32;17.60;6.40
254;DHT22;590;48.772;8.846;2023-04-01T08:11:15;17.60;6.40
254;DHT22;590;48.772;8.846;2023-04-01T08:13:55;17.60;6.40
254;DHT22;590;48.772;8.846;2023-04-01T08:16:30;17.60;6.40
254;DHT22;590;48.772;8.846;2023-04-01T08:19:06;17.60;6.40
254;DHT22;590;48.772;8.846;2023-04-01T08:21:43;17.60;6.40
254;DHT22;590;48.772;8.846;2023-04-01T08:24:25;17.60;6.40
254;DHT22;590;48.772;8.846;2023-04-01T08:27:16;17.60;6.40
254;DHT22;590;48.772;8.846;2023-04-01T08:29:48;17.60;6.40
254;DHT22;590;48.772;8.846;2023-04-01T08:32:22;17.60;6.40
254;DHT22;590;48.772;8.846;2023-04-01T08:35:02;17.60;6.40
254;DHT22;590;48.772;8.846;2023-04-01T08:37:38;17.60;6.50
254;DHT22;590;48.772;8.846;2023-04-01T08:40:25;17.60;6.50
254;DHT22;590;48.772;8.846;2023-04-01T08:43:09;17.60;6.50
254;DHT22;590;48.772;8.846;2023-04-01T08:45:45;17.60;6.50
254;DHT22;590;48.772;8.846;2023-04-01T08:48:40;17.60;6.50
254;DHT22;590;48.772;8.846;2023-04-01T08:51:42;17.60;6.50
254;DHT22;590;48.772;8.846;2023-04-01T08:57:13;17.60;6.50
254;DHT22;590;48.772;8.846;2023-04-01T08:59:53;17.60;6.50
254;DHT22;590;48.772;8.846;2023-04-01T09:03:02;17.60;6.50
254;DHT22;590;48.772;8.846;2023-04-01T09:08:39;17.60;6.60
254;DHT22;590;48.772;8.846;2023-04-01T09:11:21;17.60;6.60
254;DHT22;590;48.772;8.846;2023-04-01T09:14:26;17.60;6.50
254;DHT22;590;48.772;8.846;2023-04-01T09:17:26;17.60;6.50
254;DHT22;590;48.772;8.846;2023-04-01T09:20:16;17.60;6.50
254;DHT22;590;48.772;8.846;2023-04-01T09:22:52;17.60;6.60
254;DHT22;590;48.772;8.846;2023-04-01T09:25:33;17.60;6.60
254;DHT22;590;48.772;8.846;2023-04-01T09:28:10;17.50;6.60
254;DHT22;590;48.772;8.846;2023-04-01T09:30:57;17.50;6.60
254;DHT22;590;48.772;8.846;2023-04-01T09:34:13;17.50;6.50
254;DHT22;590;48.772;8.846;2023-04-01T09:36:58;17.50;6.60
254;DHT22;590;48.772;8.846;2023-04-01T09:39:40;17.50;6.60
254;DHT22;590;48.772;8.846;2023-04-01T09:42:25;17.50;6.60
254;DHT22;590;48.772;8.846;2023-04-01T09:44:59;17.50;6.60
254;DHT22;590;48.772;8.846;2023-04-01T09:47:43;17.50;6.60
254;DHT22;590;48.772;8.846;2023-04-01T09:50:33;17.50;6.60
254;DHT22;590;48.772;8.846;2023-04-01T09:53:14;17.50;6.60
254;DHT22;590;48.772;8.846;2023-04-01T09:56:12;17.50;6.60
254;DHT22;590;48.772;8.846;2023-04-01T09:59:22;17.50;6.60
254;DHT22;590;48.772;8.846;2023-04-01T10:02:08;17.50;6.60
254;DHT22;590;48.772;8.846;2023-04-01T10:11:32;17.50;6.70
254;DHT22;590;48.772;8.846;2023-04-01T10:14:24;17.50;6.70
254;DHT22;590;48.772;8.846;2023-04-01T10:17:08;17.50;6.70
254;DHT22;590;48.772;8.846;2023-04-01T10:23:08;17.50;6.80
254;DHT22;590;48.772;8.846;2023-04-01T10:26:07;17.50;6.80
254;DHT22;590;48.772;8.846;2023-04-01T10:29:02;17.50;6.80
254;DHT22;590;48.772;8.846;2023-04-01T10:32:05;17.50;6.80
254;DHT22;590;48.772;8.846;2023-04-01T10:35:14;17.50;6.80
254;DHT22;590;48.772;8.846;2023-04-01T10:38:04;17.50;6.80
254;DHT22;590;48.772;8.846;2023-04-01T10:40:43;17.50;6.80
254;DHT22;590;48.772;8.846;2023-04-01T10:43:46;17.50;6.80
254;DHT22;590;48.772;8.846;2023-04-01T10:52:51;17.50;6.80
254;DHT22;590;48.772;8.846;2023-04-01T10:55:44;17.50;6.80
254;DHT22;590;48.772;8.846;2023-04-01T10:58:56;17.50;6.80
254;DHT22;590;48.772;8.846;2023-04-01T11:05:04;17.50;6.90
254;DHT22;590;48.772;8.846;2023-04-01T11:08:03;17.50;6.90
254;DHT22;590;48.772;8.846;2023-04-01T11:11:03;17.50;6.90
254;DHT22;590;48.772;8.846;2023-04-01T11:17:07;17.50;6.90
254;DHT22;590;48.772;8.846;2023-04-01T11:23:01;17.50;7.00
254;DHT22;590;48.772;8.846;2023-04-01T11:26:04;17.50;7.00
254;DHT22;590;48.772;8.846;2023-04-01T11:28:55;17.50;7.00
254;DHT22;590;48.772;8.846;2023-04-01T11:31:37;17.50;7.00
254;DHT22;590;48.772;8.846;2023-04-01T11:34:17;17.50;7.00
254;DHT22;590;48.772;8.846;2023-04-01T11:36:56;17.50;7.00
254;DHT22;590;48.772;8.846;2023-04-01T11:39:33;17.50;7.00
254;DHT22;590;48.772;8.846;2023-04-01T11:42:16;17.50;6.90
254;DHT22;590;48.772;8.846;2023-04-01T11:44:51;17.50;6.80
254;DHT22;590;48.772;8.846;2023-04-01T11:47:38;17.50;6.90
254;DHT22;590;48.772;8.846;2023-04-01T11:50:21;17.50;7.50
254;DHT22;590;48.772;8.846;2023-04-01T11:53:10;17.50;7.00
254;DHT22;590;48.772;8.846;2023-04-01T11:55:51;17.50;6.90
254;DHT22;590;48.772;8.846;2023-04-01T12:01:40;17.50;6.90
254;DHT22;590;48.772;8.846;2023-04-01T12:04:29;17.50;7.00
254;DHT22;590;48.772;8.846;2023-04-01T12:07:13;17.50;7.00
254;DHT22;590;48.772;8.846;2023-04-01T12:09:50;17.50;7.00
254;DHT22;590;48.772;8.846;2023-04-01T12:12:27;17.50;7.00
254;DHT22;590;48.772;8.846;2023-04-01T12:15:08;17.50;7.00
254;DHT22;590;48.772;8.846;2023-04-01T12:17:46;17.50;7.00
254;DHT22;590;48.772;8.846;2023-04-01T12:20:30;17.50;7.00
254;DHT22;590;48.772;8.846;2023-04-01T12:23:12;17.50;7.00
254;DHT22;590;48.772;8.846;2023-04-01T12:28:46;17.50;7.00
254;DHT22;590;48.772;8.846;2023-04-01T12:31:25;17.50;7.00
254;DHT22;590;48.772;8.846;2023-04-01T12:34:13;17.50;7.00
254;DHT22;590;48.772;8.846;2023-04-01T12:36:56;17.50;7.00
254;DHT22;590;48.772;8.846;2023-04-01T12:39:47;17.50;7.00
254;DHT22;590;48.772;8.846;2023-04-01T12:42:32;17.50;7.00
254;DHT22;590;48.772;8.846;2023-04-01T12:45:28;17.50;7.00
254;DHT22;590;48.772;8.846;2023-04-01T12:48:23;17.50;7.00
254;DHT22;590;48.772;8.846;2023-04-01T12:51:15;17.50;7.00
254;DHT22;590;48.772;8.846;2023-04-01T12:56:51;17.50;7.00
254;DHT22;590;48.772;8.846;2023-04-01T12:59:37;17.50;7.00
254;DHT22;590;48.772;8.846;2023-04-01T13:02:24;17.50;7.10
254;DHT22;590;48.772;8.846;2023-04-01T13:05:24;17.50;7.10
254;DHT22;590;48.772;8.846;2023-04-01T13:08:11;17.50;7.00
254;DHT22;590;48.772;8.846;2023-04-01T13:10:52;17.50;7.00
254;DHT22;590;48.772;8.846;2023-04-01T13:13:46;17.50;7.00
254;DHT22;590;48.772;8.846;2023-04-01T13:16:23;17.50;7.00
254;DHT22;590;48.772;8.846;2023-04-01T13:18:57;17.50;7.00
254;DHT22;590;48.772;8.846;2023-04-01T13:21:35;17.50;7.10
254;DHT22;590;48.772;8.846;2023-04-01T13:24:17;17.50;7.10
254;DHT22;590;48.772;8.846;2023-04-01T13:26:56;17.50;7.10
254;DHT22;590;48.772;8.846;2023-04-01T13:29:31;17.50;7.00
254;DHT22;590;48.772;8.846;2023-04-01T13:32:10;17.50;7.10
254;DHT22;590;48.772;8.846;2023-04-01T13:34:51;17.50;7.00
254;DHT22;590;48.772;8.846;2023-04-01T13:37:32;17.50;7.00
254;DHT22;590;48.772;8.846;2023-04-01T13:40:19;17.50;7.00
254;DHT22;590;48.772;8.846;2023-04-01T13:42:53;17.50;7.10
254;DHT22;590;48.772;8.846;2023-04-01T13:45:23;17.50;7.10
254;DHT22;590;48.772;8.846;2023-04-01T13:48:18;17.50;7.10
254;DHT22;590;48.772;8.846;2023-04-01T13:51:02;17.50;7.10
254;DHT22;590;48.772;8.846;2023-04-01T13:53:53;17.50;7.10
254;DHT22;590;48.772;8.846;2023-04-01T13:56:32;17.50;7.10
254;DHT22;590;48.772;8.846;2023-04-01T14:02:15;17.50;7.10
254;DHT22;590;48.772;8.846;2023-04-01T14:05:07;17.50;7.00
254;DHT22;590;48.772;8.846;2023-04-01T14:07:49;17.50;7.00
254;DHT22;590;48.772;8.846;2023-04-01T14:10:20;17.50;7.00
254;DHT22;590;48.772;8.846;2023-04-01T14:12:57;17.50;7.10
254;DHT22;590;48.772;8.846;2023-04-01T14:15:38;17.50;7.00
254;DHT22;590;48.772;8.846;2023-04-01T14:18:20;17.50;7.00
254;DHT22;590;48.772;8.846;2023-04-01T14:20:54;17.50;7.10
254;DHT22;590;48.772;8.846;2023-04-01T14:23:39;17.50;7.10
254;DHT22;590;48.772;8.846;2023-04-01T14:26:30;17.50;7.10
254;DHT22;590;48.772;8.846;2023-04-01T14:29:14;17.50;7.00
254;DHT22;590;48.772;8.846;2023-04-01T14:31:52;17.50;7.00
254;DHT22;590;48.772;8.846;2023-04-01T14:34:33;17.50;7.00
254;DHT22;590;48.772;8.846;2023-04-01T14:37:14;17.50;7.10
254;DHT22;590;48.772;8.846;2023-04-01T14:40:05;17.50;7.10
254;DHT22;590;48.772;8.846;2023-04-01T14:45:55;17.50;7.10
254;DHT22;590;48.772;8.846;2023-04-01T14:48:31;17.50;7.10
254;DHT22;590;48.772;8.846;2023-04-01T14:51:04;17.50;7.20
254;DHT22;590;48.772;8.846;2023-04-01T14:53:41;17.50;7.10
254;DHT22;590;48.772;8.846;2023-04-01T14:56:12;17.50;7.20
254;DHT22;590;48.772;8.846;2023-04-01T14:58:44;17.50;7.10
254;DHT22;590;48.772;8.846;2023-04-01T15:01:30;17.50;7.20
254;DHT22;590;48.772;8.846;2023-04-01T15:04:17;17.50;7.20
254;DHT22;590;48.772;8.846;2023-04-01T15:07:00;17.50;7.10
254;DHT22;590;48.772;8.846;2023-04-01T15:09:37;17.50;7.10
254;DHT22;590;48.772;8.846;2023-04-01T15:12:18;17.60;7.20
254;DHT22;590;48.772;8.846;2023-04-01T15:15:09;17.60;7.20
254;DHT22;590;48.772;8.846;2023-04-01T15:17:55;17.60;7.20
254;DHT22;590;48.772;8.846;2023-04-01T15:20:39;17.60;7.20
254;DHT22;590;48.772;8.846;2023-04-01T15:23:25;17.60;7.20
254;DHT22;590;48.772;8.846;2023-04-01T15:26:13;17.60;7.20
254;DHT22;590;48.772;8.846;2023-04-01T15:28:53;17.60;7.20
254;DHT22;590;48.772;8.846;2023-04-01T15:31:29;17.60;7.20
254;DHT22;590;48.772;8.846;2023-04-01T15:34:11;17.60;7.20
254;DHT22;590;48.772;8.846;2023-04-01T15:36:46;17.60;7.20
254;DHT22;590;48.772;8.846;2023-04-01T15:39:18;17.60;7.10
254;DHT22;590;48.772;8.846;2023-04-01T15:42:09;17.60;7.20
254;DHT22;590;48.772;8.846;2023-04-01T15:45:17;17.60;7.20
254;DHT22;590;48.772;8.846;2023-04-01T15:47:59;17.60;7.20
254;DHT22;590;48.772;8.846;2023-04-01T15:50:50;17.60;7.30
254;DHT22;590;48.772;8.846;2023-04-01T15:53:42;17.60;7.20
254;DHT22;590;48.772;8.846;2023-04-01T15:56:27;17.60;7.20
254;DHT22;590;48.772;8.846;2023-04-01T15:59:09;17.60;7.30
254;DHT22;590;48.772;8.846;2023-04-01T16:01:47;17.60;7.30
254;DHT22;590;48.772;8.846;2023-04-01T16:04:40;17.60;7.30
254;DHT22;590;48.772;8.846;2023-04-01T16:07:21;17.60;7.30
254;DHT22;590;48.772;8.846;2023-04-01T16:10:04;17.60;7.30
254;DHT22;590;48.772;8.846;2023-04-01T16:12:44;17.60;7.30
254;DHT22;590;48.772;8.846;2023-04-01T16:15:24;17.60;7.20
254;DHT22;590;48.772;8.846;2023-04-01T16:18:13;17.60;7.20
254;DHT22;590;48.772;8.846;2023-04-01T16:20:51;17.60;7.20
254;DHT22;590;48.772;8.846;2023-04-01T16:23:26;17.60;7.20
254;DHT22;590;48.772;8.846;2023-04-01T16:26:05;17.60;7.20
254;DHT22;590;48.772;8.846;2023-04-01T16:28:39;17.60;7.20
254;DHT22;590;48.772;8.846;2023-04-01T16:31:15;17.60;7.30
254;DHT22;590;48.772;8.846;2023-04-01T16:33:49;17.60;7.30
254;DHT22;590;48.772;8.846;2023-04-01T16:36:26;17.60;7.20
254;DHT22;590;48.772;8.846;2023-04-01T16:39:09;17.60;7.10
254;DHT22;590;48.772;8.846;2023-04-01T16:41:47;17.60;7.10
254;DHT22;590;48.772;8.846;2023-04-01T16:44:19;17.60;7.10
254;DHT22;590;48.772;8.846;2023-04-01T16:46:51;17.70;7.10
254;DHT22;590;48.772;8.846;2023-04-01T16:49:32;17.70;7.10
254;DHT22;590;48.772;8.846;2023-04-01T16:52:15;17.70;7.10
254;DHT22;590;48.772;8.846;2023-04-01T16:54:50;17.70;7.00
254;DHT22;590;48.772;8.846;2023-04-01T16:57:23;17.70;7.00
254;DHT22;590;48.772;8.846;2023-04-01T17:00:00;17.70;7.00
254;DHT22;590;48.772;8.846;2023-04-01T17:02:34;17.70;7.00
254;DHT22;590;48.772;8.846;2023-04-01T17:05:07;17.70;7.00
254;DHT22;590;48.772;8.846;2023-04-01T17:07:45;17.70;7.00
254;DHT22;590;48.772;8.846;2023-04-01T17:10:32;17.70;7.00
254;DHT22;590;48.772;8.846;2023-04-01T17:16:10;17.70;7.00
254;DHT22;590;48.772;8.846;2023-04-01T17:18:49;17.80;7.00
254;DHT22;590;48.772;8.846;2023-04-01T17:21:24;17.70;6.90
254;DHT22;590;48.772;8.846;2023-04-01T17:24:00;17.80;7.00
254;DHT22;590;48.772;8.846;2023-04-01T17:26:38;17.80;7.00
254;DHT22;590;48.772;8.846;2023-04-01T17:29:16;17.80;7.00
254;DHT22;590;48.772;8.846;2023-04-01T17:31:51;17.80;7.00
254;DHT22;590;48.772;8.846;2023-04-01T17:34:44;17.80;7.00
254;DHT22;590;48.772;8.846;2023-04-01T17:37:41;17.80;7.00
254;DHT22;590;48.772;8.846;2023-04-01T17:40:27;17.80;7.00
254;DHT22;590;48.772;8.846;2023-04-01T17:43:03;17.80;7.00
254;DHT22;590;48.772;8.846;2023-04-01T17:45:42;17.80;7.00
254;DHT22;590;48.772;8.846;2023-04-01T17:48:21;17.80;7.00
254;DHT22;590;48.772;8.846;2023-04-01T17:51:05;17.80;6.90
254;DHT22;590;48.772;8.846;2023-04-01T17:53:43;17.80;7.00
254;DHT22;590;48.772;8.846;2023-04-01T17:56:19;17.80;6.90
254;DHT22;590;48.772;8.846;2023-04-01T17:58:56;17.80;7.00
254;DHT22;590;48.772;8.846;2023-04-01T18:01:36;17.80;7.00
254;DHT22;590;48.772;8.846;2023-04-01T18:04:22;17.80;7.00
254;DHT22;590;48.772;8.846;2023-04-01T18:07:20;17.80;6.90
254;DHT22;590;48.772;8.846;2023-04-01T18:09:57;17.80;7.50
254;DHT22;590;48.772;8.846;2023-04-01T18:12:34;17.80;7.00
254;DHT22;590;48.772;8.846;2023-04-01T18:15:25;17.80;7.00
254;DHT22;590;48.772;8.846;2023-04-01T18:18:05;17.80;7.00
254;DHT22;590;48.772;8.846;2023-04-01T18:20:47;17.80;7.00
254;DHT22;590;48.772;8.846;2023-04-01T18:23:26;17.80;7.00
254;DHT22;590;48.772;8.846;2023-04-01T18:26:04;17.90;7.10
254;DHT22;590;48.772;8.846;2023-04-01T18:28:36;17.90;7.10
254;DHT22;590;48.772;8.846;2023-04-01T18:31:11;17.90;7.10
254;DHT22;590;48.772;8.846;2023-04-01T18:33:48;17.90;7.10
254;DHT22;590;48.772;8.846;2023-04-01T18:36:22;17.90;7.10
254;DHT22;590;48.772;8.846;2023-04-01T18:38:57;17.90;7.10
254;DHT22;590;48.772;8.846;2023-04-01T18:41:33;17.90;7.10
254;DHT22;590;48.772;8.846;2023-04-01T18:44:23;17.90;7.10
254;DHT22;590;48.772;8.846;2023-04-01T18:47:00;17.90;7.10
254;DHT22;590;48.772;8.846;2023-04-01T18:49:39;17.90;7.10
254;DHT22;590;48.772;8.846;2023-04-01T18:52:16;17.90;7.30
254;DHT22;590;48.772;8.846;2023-04-01T18:55:21;17.90;7.10
254;DHT22;590;48.772;8.846;2023-04-01T18:57:51;17.90;7.00
254;DHT22;590;48.772;8.846;2023-04-01T19:00:22;17.90;7.10
254;DHT22;590;48.772;8.846;2023-04-01T19:02:58;17.90;7.10
254;DHT22;590;48.772;8.846;2023-04-01T19:05:31;17.90;7.10